logo
Search for airport 
image banner adimage banner adimage banner ad
image banner ad

HTLM - Lake Manyara/Manyara

Located in , Tanzania, United Republic of

ICAO - HTLM, IATA - LKY

Data provided by Airmate  

General information

Coordinates: S3°22'32" E35°49'5"
Elevation is 4150 feet MSL.
 
View others Airports in Manyara

Operational data

Special qualification required
Current time UTC:
Current local time:
Weather at : - ( 0 km )
METAR: CYNM 131913Z AUTO 31017G33KT 2 1/2SM -SN BKN013 OVC020 M00/M02 A2945 RMK SLP989
View NOTAMs / SUP AIP / TFR affecting this airport [VIEW]
Communications frequencies: [VIEW]

Runways:

RWY identifierQFULength (ft)Width (ft)SurfaceLDA (ft)
12120°400369BIT
30300°400369BIT

Airport contact information

Address: Tanzania, United Republic of

Satellite view of HTLM